Terminal Aerodrome Forecast
Issued by NWS

Home | Current Version | Previous Version | Graphics & Text | Print | Product List | Glossary On
Versions: 1 2 3 4 5 6 7 8 9 10 11 12 13
000
FTUS43 KBIS 181400 AAA
TAFMOT
TAF AMD
KMOT 181412Z 1814/1912 15010KT P6SM OVC006
     FM181700 15009KT P6SM SCT008 OVC012
     FM181800 17014KT P6SM SCT020 SCT150
     FM190200 20009KT P6SM SCT120 SCT150
     FM190900 26010KT P6SM SCT100=

USA.gov is the U.S. government's official web portal to all federal, state and local government web resources and services.